createdAt,value
2018-04-02T00:01:37.032Z,7.40
2018-04-02T00:04:12.141Z,7.50
2018-04-02T00:06:46.658Z,7.50
2018-04-02T00:09:21.384Z,7.50
2018-04-02T00:11:56.629Z,7.50
2018-04-02T00:14:31.570Z,7.50
2018-04-02T00:17:06.980Z,7.50
2018-04-02T00:19:41.473Z,7.40
2018-04-02T00:22:15.950Z,7.50
2018-04-02T00:24:51.824Z,7.40
2018-04-02T00:27:26.174Z,7.30
2018-04-02T00:30:01.932Z,7.20
2018-04-02T00:32:37.272Z,7.10
2018-04-02T00:35:11.743Z,7.10
2018-04-02T00:37:46.398Z,7.00
2018-04-02T00:40:21.423Z,6.80
2018-04-02T00:42:57.581Z,6.80
2018-04-02T00:45:32.049Z,6.80
2018-04-02T00:48:06.402Z,6.80
2018-04-02T00:50:41.027Z,6.70
2018-04-02T00:53:15.586Z,6.80
2018-04-02T00:55:50.745Z,6.70
2018-04-02T00:58:25.149Z,6.70
2018-04-02T01:00:59.529Z,6.80
2018-04-02T01:03:34.253Z,6.70
2018-04-02T01:06:10.268Z,6.60
2018-04-02T01:08:44.949Z,6.60
2018-04-02T01:11:19.413Z,6.60
2018-04-02T01:13:53.807Z,6.70
2018-04-02T01:16:28.318Z,6.60
2018-04-02T01:19:03.608Z,6.70
2018-04-02T01:21:38.306Z,6.60
2018-04-02T01:24:13.863Z,6.60
2018-04-02T01:26:48.650Z,6.60
2018-04-02T01:29:23.447Z,6.60
2018-04-02T01:31:58.065Z,6.60
2018-04-02T01:34:32.305Z,6.60
2018-04-02T01:37:07.933Z,6.60
2018-04-02T01:39:42.296Z,6.60
2018-04-02T01:42:16.723Z,6.60
2018-04-02T01:44:51.059Z,6.50
2018-04-02T01:47:25.872Z,6.50
2018-04-02T01:50:00.139Z,6.50
2018-04-02T01:52:34.618Z,6.50
2018-04-02T01:55:09.797Z,6.30
2018-04-02T01:57:45.005Z,6.30
2018-04-02T02:00:19.422Z,6.30
2018-04-02T02:02:54.415Z,6.30
2018-04-02T02:05:28.837Z,6.30
2018-04-02T02:08:03.421Z,6.20
2018-04-02T02:10:37.840Z,6.10
2018-04-02T02:13:12.472Z,6.00
2018-04-02T02:15:46.888Z,6.00
2018-04-02T02:18:21.555Z,6.00
2018-04-02T02:20:56.584Z,5.90
2018-04-02T02:23:31.204Z,5.90
2018-04-02T02:26:05.637Z,5.80
2018-04-02T02:28:40.210Z,5.70
2018-04-02T02:31:14.537Z,5.70
2018-04-02T02:33:49.232Z,5.70
2018-04-02T02:36:24.487Z,5.60
2018-04-02T02:38:58.824Z,5.60
2018-04-02T02:41:33.576Z,5.60
2018-04-02T02:44:07.938Z,5.60
2018-04-02T02:46:42.325Z,5.60
2018-04-02T02:49:16.951Z,5.60
2018-04-02T02:51:51.615Z,5.60
2018-04-02T02:54:26.292Z,5.50
2018-04-02T02:57:00.558Z,5.50
2018-04-02T02:59:34.820Z,5.40
2018-04-02T03:02:09.117Z,5.40
2018-04-02T03:04:43.509Z,5.50
2018-04-02T03:07:17.693Z,5.50
2018-04-02T03:09:52.009Z,5.50
2018-04-02T03:12:26.428Z,5.50
2018-04-02T03:15:00.864Z,5.60
2018-04-02T03:17:35.180Z,5.60
2018-04-02T03:20:10.824Z,5.50
2018-04-02T03:22:46.024Z,5.60
2018-04-02T03:25:20.728Z,5.60
2018-04-02T03:27:55.457Z,5.60
2018-04-02T03:30:30.778Z,5.70
2018-04-02T03:33:05.147Z,5.60
2018-04-02T03:35:39.704Z,5.60
2018-04-02T03:38:14.736Z,5.60
2018-04-02T03:40:49.055Z,5.60
2018-04-02T03:43:24.491Z,5.70
2018-04-02T03:45:58.874Z,5.60
2018-04-02T03:48:33.431Z,5.70
2018-04-02T03:51:07.932Z,5.70
2018-04-02T03:53:43.357Z,5.70
2018-04-02T03:56:17.655Z,5.70
2018-04-02T03:58:52.158Z,5.60
2018-04-02T04:01:27.295Z,5.50
2018-04-02T04:04:01.914Z,5.50
2018-04-02T04:06:37.545Z,5.40
2018-04-02T04:09:11.949Z,5.40
2018-04-02T04:11:46.301Z,5.40
2018-04-02T04:14:20.688Z,5.40
2018-04-02T04:16:55.062Z,5.40
2018-04-02T04:19:29.697Z,5.40
2018-04-02T04:22:04.143Z,5.50
2018-04-02T04:24:38.501Z,5.60
2018-04-02T04:27:13.652Z,5.70
2018-04-02T04:29:48.804Z,5.70
2018-04-02T04:32:23.901Z,5.80
2018-04-02T04:34:59.065Z,5.90
2018-04-02T04:37:33.561Z,5.90
2018-04-02T04:40:07.933Z,6.00
2018-04-02T04:42:43.133Z,6.00
2018-04-02T04:45:17.637Z,6.00
2018-04-02T04:47:52.429Z,6.00
2018-04-02T04:50:27.571Z,6.10
2018-04-02T04:53:01.871Z,6.10
2018-04-02T04:55:36.719Z,6.10
2018-04-02T04:58:11.815Z,6.00
2018-04-02T05:00:46.222Z,6.00
2018-04-02T05:03:20.624Z,6.00
2018-04-02T05:05:54.976Z,5.90
2018-04-02T05:08:29.599Z,5.90
2018-04-02T05:11:04.096Z,5.80
2018-04-02T05:13:38.345Z,5.80
2018-04-02T05:16:12.754Z,5.80
2018-04-02T05:18:48.068Z,5.80
2018-04-02T05:21:22.357Z,5.80
2018-04-02T05:23:57.266Z,5.70
2018-04-02T05:26:31.856Z,5.70
2018-04-02T05:29:06.908Z,5.70
2018-04-02T05:31:41.310Z,5.70
2018-04-02T05:34:15.548Z,5.70
2018-04-02T05:36:50.228Z,5.70
2018-04-02T05:39:24.639Z,5.70
2018-04-02T05:41:58.968Z,5.80
2018-04-02T05:44:33.288Z,5.90
2018-04-02T05:47:07.937Z,5.90
2018-04-02T05:49:43.556Z,6.00
2018-04-02T05:52:17.949Z,6.00
2018-04-02T05:54:52.335Z,6.10
2018-04-02T05:57:26.873Z,6.10
2018-04-02T06:00:01.240Z,6.20
2018-04-02T06:02:35.562Z,6.30
2018-04-02T06:05:10.690Z,6.30
2018-04-02T06:07:45.113Z,6.30
2018-04-02T06:10:19.695Z,6.40
2018-04-02T06:12:54.214Z,6.50
2018-04-02T06:15:28.768Z,6.50
2018-04-02T06:18:03.315Z,6.40
2018-04-02T06:20:37.921Z,6.60
2018-04-02T06:23:12.470Z,6.70
2018-04-02T06:25:47.275Z,7.00
2018-04-02T06:28:22.049Z,7.10
2018-04-02T06:30:56.552Z,7.20
2018-04-02T06:33:30.959Z,7.40
2018-04-02T06:36:05.319Z,7.60
2018-04-02T06:38:39.602Z,7.60
2018-04-02T06:41:14.921Z,7.60
2018-04-02T06:43:49.445Z,7.60
2018-04-02T06:46:23.715Z,7.70
2018-04-02T06:48:57.991Z,7.80
2018-04-02T06:51:32.650Z,7.80
2018-04-02T06:54:07.205Z,7.90
2018-04-02T06:56:42.392Z,8.00
2018-04-02T06:59:16.785Z,8.00
2018-04-02T07:01:52.007Z,8.20
2018-04-02T07:04:26.598Z,8.20
2018-04-02T07:07:01.236Z,8.30
2018-04-02T07:09:35.644Z,8.30
2018-04-02T07:12:10.246Z,8.40
2018-04-02T07:14:45.171Z,8.40
2018-04-02T07:17:19.712Z,8.70
2018-04-02T07:19:54.697Z,8.90
2018-04-02T07:22:29.665Z,8.90
2018-04-02T07:25:04.083Z,9.10
2018-04-02T07:27:38.661Z,9.40
2018-04-02T07:30:13.192Z,10.60
2018-04-02T07:32:49.668Z,12.90
2018-04-02T07:35:25.245Z,13.90
2018-04-02T07:38:00.482Z,13.90
2018-04-02T07:40:37.706Z,14.10
2018-04-02T07:43:13.248Z,13.00
2018-04-02T07:45:48.398Z,13.00
2018-04-02T07:48:24.868Z,12.40
2018-04-02T07:51:00.134Z,12.30
2018-04-02T07:53:35.062Z,12.20
2018-04-02T07:56:10.163Z,12.10
2018-04-02T07:58:47.269Z,12.10
2018-04-02T08:01:22.488Z,11.80
2018-04-02T08:03:57.388Z,11.70
2018-04-02T08:06:31.819Z,12.00
2018-04-02T08:09:09.782Z,12.30
2018-04-02T08:11:50.165Z,12.00
2018-04-02T08:14:27.830Z,12.10
2018-04-02T08:17:03.043Z,12.30
2018-04-02T08:19:37.530Z,12.40
2018-04-02T08:22:11.745Z,12.50
2018-04-02T08:24:47.629Z,12.70
2018-04-02T08:27:21.915Z,12.70
2018-04-02T08:29:58.373Z,12.90
2018-04-02T08:32:33.635Z,13.20
2018-04-02T08:35:07.782Z,13.10
2018-04-02T08:37:42.386Z,13.00
2018-04-02T08:40:17.604Z,12.90
2018-04-02T08:42:52.710Z,13.00
2018-04-02T08:45:28.128Z,13.10
2018-04-02T08:48:02.632Z,13.10
2018-04-02T08:50:39.923Z,13.70
2018-04-02T08:53:14.513Z,14.10
2018-04-02T08:55:48.856Z,14.10
2018-04-02T08:58:23.213Z,13.90
2018-04-02T09:00:58.462Z,13.80
2018-04-02T09:03:33.031Z,14.40
2018-04-02T09:06:07.333Z,14.90
2018-04-02T09:08:42.163Z,14.80
2018-04-02T09:11:17.441Z,14.80
2018-04-02T09:13:52.438Z,14.70
2018-04-02T09:16:27.301Z,14.50
2018-04-02T09:19:01.724Z,14.40
2018-04-02T09:21:36.388Z,13.90
2018-04-02T09:24:10.682Z,13.80
2018-04-02T09:26:45.702Z,13.60
2018-04-02T09:29:20.268Z,13.50
2018-04-02T09:31:55.474Z,13.80
2018-04-02T09:34:30.470Z,14.30
2018-04-02T09:37:05.041Z,14.30
2018-04-02T09:39:39.534Z,14.50
2018-04-02T09:42:15.093Z,14.80
2018-04-02T09:50:15.558Z,13.30
2018-04-02T09:52:50.497Z,13.50
2018-04-02T09:55:25.054Z,13.50
2018-04-02T09:57:59.576Z,13.50
2018-04-02T10:00:33.922Z,13.70
2018-04-02T10:03:08.688Z,14.10
2018-04-02T10:05:42.943Z,14.40
2018-04-02T10:08:17.995Z,14.70
2018-04-02T10:10:52.536Z,14.70
2018-04-02T10:13:26.825Z,14.80
2018-04-02T10:16:02.175Z,14.90
2018-04-02T10:18:36.517Z,14.90
2018-04-02T10:21:10.897Z,14.60
2018-04-02T10:23:45.518Z,14.60
2018-04-02T10:26:20.915Z,14.20
2018-04-02T10:28:56.319Z,14.20
2018-04-02T10:31:30.800Z,14.00
2018-04-02T10:34:05.862Z,13.90
2018-04-02T10:36:40.990Z,14.10
2018-04-02T10:39:16.385Z,14.00
2018-04-02T10:42:01.646Z,14.30
2018-04-02T10:44:36.290Z,14.30
2018-04-02T10:47:11.813Z,15.10
2018-04-02T10:49:48.604Z,15.00
2018-04-02T10:52:24.971Z,15.00
2018-04-02T10:55:00.064Z,15.10
2018-04-02T10:57:34.757Z,15.10
2018-04-02T11:00:10.457Z,15.40
2018-04-02T11:02:45.550Z,15.50
2018-04-02T11:05:19.963Z,15.50
2018-04-02T11:07:54.586Z,15.50
2018-04-02T11:10:29.899Z,15.50
2018-04-02T11:13:04.581Z,15.50
2018-04-02T11:15:39.815Z,15.10
2018-04-02T11:18:14.225Z,15.10
2018-04-02T11:20:48.532Z,15.60
2018-04-02T11:23:23.710Z,15.80
2018-04-02T11:25:58.320Z,15.70
2018-04-02T11:28:33.496Z,15.30
2018-04-02T11:31:08.268Z,15.30
2018-04-02T11:33:42.856Z,15.00
2018-04-02T11:36:17.679Z,15.10
2018-04-02T11:38:52.100Z,14.80
2018-04-02T11:41:26.824Z,14.80
2018-04-02T11:44:01.337Z,14.80
2018-04-02T11:46:36.434Z,14.70
2018-04-02T11:49:13.911Z,14.80
2018-04-02T11:51:53.074Z,15.30
2018-04-02T11:54:29.277Z,15.30
2018-04-02T11:57:04.202Z,15.30
2018-04-02T11:59:38.726Z,15.50
2018-04-02T12:02:13.237Z,15.50
2018-04-02T12:04:47.472Z,15.50
2018-04-02T12:11:12.004Z,15.60
2018-04-02T12:16:54.449Z,15.70
2018-04-02T12:22:34.186Z,16.00
2018-04-02T12:25:09.391Z,16.00
2018-04-02T12:27:43.796Z,15.90
2018-04-02T12:30:18.326Z,16.00
2018-04-02T12:32:55.105Z,15.80
2018-04-02T12:35:30.147Z,15.80
2018-04-02T12:38:05.165Z,15.50
2018-04-02T12:40:39.746Z,15.20
2018-04-02T12:43:14.215Z,15.20
2018-04-02T13:33:55.551Z,14.90
2018-04-02T13:36:30.239Z,14.90
2018-04-02T13:39:07.547Z,14.90
2018-04-02T13:41:42.463Z,15.00
2018-04-02T13:44:24.045Z,14.80
2018-04-02T13:47:00.234Z,14.90
2018-04-02T13:49:42.073Z,15.10
2018-04-02T13:52:19.278Z,15.20
2018-04-02T13:54:54.530Z,15.10
2018-04-02T13:57:31.190Z,15.20
2018-04-02T14:00:06.802Z,15.30
2018-04-02T14:02:43.412Z,15.40
2018-04-02T14:05:18.530Z,15.40
2018-04-02T14:07:58.198Z,15.30
2018-04-02T14:13:37.323Z,15.10
2018-04-02T14:16:14.294Z,15.00
2018-04-02T14:18:58.415Z,15.00
2018-04-02T14:21:34.677Z,15.10
2018-04-02T14:24:08.850Z,15.10
2018-04-02T14:26:43.270Z,15.20
2018-04-02T14:29:17.640Z,15.20
2018-04-02T14:31:53.649Z,15.20
2018-04-02T14:34:28.616Z,15.10
2018-04-02T14:37:05.648Z,15.10
2018-04-02T14:39:40.573Z,15.00
2018-04-02T14:42:15.911Z,14.80
2018-04-02T14:44:56.162Z,14.80
2018-04-02T14:47:41.222Z,14.80
2018-04-02T14:50:21.883Z,14.90
2018-04-02T14:53:20.700Z,15.00
2018-04-02T14:58:59.595Z,15.10
2018-04-02T15:04:33.056Z,15.30
2018-04-02T15:07:14.304Z,15.20
2018-04-02T15:18:45.340Z,15.50
2018-04-02T15:21:20.581Z,15.40
2018-04-02T15:23:57.337Z,15.40
2018-04-02T15:26:35.728Z,15.30
2018-04-02T15:29:10.661Z,15.10
2018-04-02T15:31:45.319Z,14.90
2018-04-02T15:34:24.664Z,14.70
2018-04-02T15:36:59.290Z,14.70
2018-04-02T15:39:54.101Z,14.50
2018-04-02T15:42:34.923Z,14.40
2018-04-02T15:45:18.179Z,14.40
2018-04-02T15:47:55.780Z,14.20
2018-04-02T15:50:30.581Z,14.20
2018-04-02T15:53:08.038Z,14.10
2018-04-02T15:55:43.360Z,14.10
